createdAt,value
2022-12-08T00:01:40.739Z,0.88
2022-12-08T00:04:08.239Z,0.85
2022-12-08T00:06:56.888Z,0.80
2022-12-08T00:09:27.088Z,0.80
2022-12-08T00:11:54.180Z,0.82
2022-12-08T00:14:23.489Z,0.80
2022-12-08T00:16:50.815Z,0.85
2022-12-08T00:19:18.013Z,0.75
2022-12-08T00:21:45.248Z,0.77
2022-12-08T00:24:12.530Z,0.90
2022-12-08T00:26:39.659Z,0.63
2022-12-08T00:29:06.818Z,1.10
2022-12-08T00:31:34.238Z,1.20
2022-12-08T00:34:01.637Z,0.70
2022-12-08T00:36:28.886Z,0.88
2022-12-08T00:38:56.156Z,1.05
2022-12-08T00:41:43.728Z,0.80
2022-12-08T00:44:11.900Z,0.68
2022-12-08T00:46:39.037Z,0.60
2022-12-08T00:49:06.738Z,0.77
2022-12-08T00:51:34.405Z,0.77
2022-12-08T00:54:01.515Z,0.70
2022-12-08T00:56:28.726Z,0.80
2022-12-08T00:58:55.921Z,0.75
2022-12-08T01:01:23.179Z,0.80
2022-12-08T01:03:50.390Z,0.73
2022-12-08T01:06:17.516Z,0.90
2022-12-08T01:08:44.677Z,0.88
2022-12-08T01:11:13.173Z,0.50
2022-12-08T01:13:40.541Z,0.70
2022-12-08T01:16:07.684Z,1.00
2022-12-08T01:18:34.806Z,0.70
2022-12-08T01:21:05.881Z,0.80
2022-12-08T01:23:33.150Z,0.50
2022-12-08T01:26:07.518Z,0.73
2022-12-08T01:28:35.011Z,0.63
2022-12-08T01:31:02.508Z,0.57
2022-12-08T01:33:30.122Z,0.60
2022-12-08T01:35:57.304Z,0.80
2022-12-08T01:38:24.441Z,0.63
2022-12-08T01:40:51.498Z,0.77
2022-12-08T01:43:19.606Z,0.68
2022-12-08T01:45:47.141Z,0.50
2022-12-08T01:48:19.083Z,0.50
2022-12-08T01:50:47.467Z,0.47
2022-12-08T01:53:17.021Z,0.75
2022-12-08T01:55:45.694Z,0.70
2022-12-08T01:58:18.422Z,0.73
2022-12-08T02:00:45.650Z,0.60
2022-12-08T02:03:15.112Z,0.50
2022-12-08T02:05:42.299Z,0.52
2022-12-08T02:08:11.319Z,0.40
2022-12-08T02:10:41.552Z,0.50
2022-12-08T02:13:11.930Z,0.63
2022-12-08T02:15:57.896Z,0.80
2022-12-08T02:18:33.873Z,0.50
2022-12-08T02:21:05.897Z,0.50
2022-12-08T02:23:52.539Z,0.47
2022-12-08T02:26:19.606Z,0.60
2022-12-08T02:28:55.631Z,0.50
2022-12-08T02:31:31.398Z,0.70
2022-12-08T02:34:04.990Z,0.60
2022-12-08T02:36:47.786Z,0.50
2022-12-08T02:39:24.003Z,0.50
2022-12-08T02:42:08.144Z,0.50
2022-12-08T02:44:48.953Z,0.50
2022-12-08T02:47:21.519Z,0.60
2022-12-08T02:49:48.674Z,0.50
2022-12-08T02:52:15.893Z,0.70
2022-12-08T02:54:47.877Z,0.50
2022-12-08T02:57:33.803Z,0.60
2022-12-08T03:00:01.029Z,0.47
2022-12-08T03:02:28.817Z,0.43
2022-12-08T03:05:03.167Z,0.50
2022-12-08T03:07:36.172Z,0.65
2022-12-08T03:10:03.510Z,0.60
2022-12-08T03:12:39.268Z,0.40
2022-12-08T03:15:11.374Z,0.40
2022-12-08T03:17:39.511Z,0.50
2022-12-08T03:20:10.349Z,0.75
2022-12-08T03:22:38.224Z,0.50
2022-12-08T03:25:05.767Z,0.60
2022-12-08T03:27:33.301Z,0.52
2022-12-08T03:30:01.077Z,0.50
2022-12-08T03:32:28.192Z,0.38
2022-12-08T03:34:57.029Z,0.40
2022-12-08T03:37:24.123Z,0.50
2022-12-08T03:39:51.189Z,0.45
2022-12-08T03:42:18.288Z,0.57
2022-12-08T03:44:45.397Z,0.40
2022-12-08T03:47:12.485Z,0.43
2022-12-08T03:49:39.809Z,0.50
2022-12-08T03:52:07.713Z,0.45
2022-12-08T03:54:34.805Z,0.45
2022-12-08T03:57:01.888Z,0.38
2022-12-08T03:59:28.968Z,0.35
2022-12-08T04:01:56.118Z,0.30
2022-12-08T04:04:23.274Z,0.30
2022-12-08T04:06:51.332Z,0.50
2022-12-08T04:09:18.657Z,0.50
2022-12-08T04:11:45.744Z,0.40
2022-12-08T04:14:13.022Z,0.30
2022-12-08T04:16:40.191Z,0.50
2022-12-08T04:19:07.287Z,0.40
2022-12-08T04:21:34.350Z,0.25
2022-12-08T04:24:01.734Z,0.40
2022-12-08T04:26:29.306Z,0.43
2022-12-08T04:28:56.403Z,0.30
2022-12-08T04:31:23.554Z,0.45
2022-12-08T04:33:50.717Z,0.40
2022-12-08T04:36:17.796Z,0.50
2022-12-08T04:38:44.916Z,0.47
2022-12-08T04:41:12.032Z,0.50
2022-12-08T04:43:39.223Z,0.35
2022-12-08T04:46:10.853Z,0.40
2022-12-08T04:48:38.482Z,0.30
2022-12-08T04:51:05.890Z,0.22
2022-12-08T04:53:33.356Z,0.30
2022-12-08T04:56:00.449Z,0.30
2022-12-08T04:58:27.534Z,0.50
2022-12-08T05:00:54.765Z,0.40
2022-12-08T05:03:28.237Z,0.40
2022-12-08T05:05:55.750Z,0.40
2022-12-08T05:08:23.095Z,0.68
2022-12-08T05:10:50.249Z,0.20
2022-12-08T05:13:17.376Z,0.28
2022-12-08T05:15:44.455Z,0.30
2022-12-08T05:18:11.611Z,0.47
2022-12-08T05:20:38.693Z,0.20
2022-12-08T05:23:05.834Z,0.40
2022-12-08T05:25:32.876Z,0.38
2022-12-08T05:28:24.702Z,0.40
2022-12-08T05:30:47.033Z,0.30
2022-12-08T05:33:14.159Z,0.35
2022-12-08T05:35:41.314Z,0.40
2022-12-08T05:38:08.371Z,0.30
2022-12-08T05:40:35.499Z,0.40
2022-12-08T05:43:02.573Z,0.30
2022-12-08T05:45:29.877Z,0.30
2022-12-08T05:47:57.049Z,0.50
2022-12-08T05:50:24.259Z,0.73
2022-12-08T05:52:51.336Z,0.47
2022-12-08T05:55:18.847Z,0.57
2022-12-08T05:57:45.896Z,0.60
2022-12-08T06:00:13.345Z,0.30
2022-12-08T06:02:40.601Z,0.60
2022-12-08T06:05:08.365Z,0.50
2022-12-08T06:07:35.443Z,0.30
2022-12-08T06:10:03.027Z,0.45
2022-12-08T06:12:30.591Z,0.40
2022-12-08T06:14:57.724Z,0.45
2022-12-08T06:17:24.794Z,0.30
2022-12-08T06:19:51.866Z,0.43
2022-12-08T06:22:18.964Z,0.40
2022-12-08T06:24:46.057Z,0.30
2022-12-08T06:27:13.136Z,1.00
2022-12-08T06:29:40.412Z,0.30
2022-12-08T06:32:07.606Z,0.30
2022-12-08T06:34:34.737Z,0.40
2022-12-08T06:37:01.829Z,0.38
2022-12-08T06:39:28.943Z,0.40
2022-12-08T06:42:14.562Z,0.40
2022-12-08T06:44:41.688Z,0.47
2022-12-08T06:47:08.833Z,0.50
2022-12-08T06:49:36.146Z,0.40
2022-12-08T06:52:03.346Z,0.47
2022-12-08T06:54:30.465Z,0.45
2022-12-08T06:56:57.610Z,0.30
2022-12-08T06:59:26.106Z,0.52
2022-12-08T07:01:53.319Z,0.25
2022-12-08T07:04:20.478Z,0.30
2022-12-08T07:06:47.631Z,0.40
2022-12-08T07:09:15.121Z,0.38
2022-12-08T07:11:42.343Z,0.50
2022-12-08T07:14:10.844Z,0.40
2022-12-08T07:16:39.303Z,0.43
2022-12-08T07:19:06.765Z,0.30
2022-12-08T07:21:33.916Z,0.63
2022-12-08T07:24:01.566Z,0.43
2022-12-08T07:26:28.838Z,0.40
2022-12-08T07:28:55.897Z,0.40
2022-12-08T07:31:24.553Z,0.30
2022-12-08T07:33:52.490Z,0.40
2022-12-08T07:36:19.953Z,0.50
2022-12-08T07:38:47.030Z,0.50
2022-12-08T07:41:15.538Z,0.40
2022-12-08T07:43:42.978Z,0.35
2022-12-08T07:46:20.111Z,0.50
2022-12-08T07:48:47.688Z,0.50
2022-12-08T07:51:15.618Z,0.50
2022-12-08T07:53:47.294Z,0.47
2022-12-08T07:56:19.077Z,0.60
2022-12-08T07:58:46.878Z,0.30
2022-12-08T08:01:24.924Z,0.40
2022-12-08T08:03:52.296Z,0.40
2022-12-08T08:06:19.426Z,0.30
2022-12-08T08:08:46.574Z,0.60
2022-12-08T08:11:20.867Z,0.30
2022-12-08T08:16:16.010Z,0.38
2022-12-08T08:18:43.553Z,0.30
2022-12-08T08:23:57.790Z,0.28
2022-12-08T08:26:24.857Z,0.45
2022-12-08T08:28:51.936Z,0.43
2022-12-08T08:31:19.053Z,0.40
2022-12-08T08:33:48.754Z,0.38
2022-12-08T08:36:15.890Z,0.40
2022-12-08T08:38:44.212Z,0.40
2022-12-08T08:41:11.709Z,0.40
2022-12-08T08:43:40.910Z,0.50
2022-12-08T08:46:09.063Z,0.30
2022-12-08T08:48:36.408Z,0.50
2022-12-08T08:51:10.471Z,0.43
2022-12-08T08:53:37.810Z,0.38
2022-12-08T08:56:09.180Z,0.28
2022-12-08T08:58:36.481Z,0.50
2022-12-08T09:01:03.663Z,0.50
2022-12-08T09:03:30.750Z,0.45
2022-12-08T09:05:57.980Z,0.30
2022-12-08T09:08:25.618Z,0.40
2022-12-08T09:10:52.757Z,0.30
2022-12-08T09:13:19.949Z,0.40
2022-12-08T09:15:47.092Z,0.40
2022-12-08T09:18:14.262Z,0.30
2022-12-08T09:20:41.443Z,0.28
2022-12-08T09:23:08.574Z,0.40
2022-12-08T09:25:35.679Z,0.30
2022-12-08T09:28:02.856Z,0.30
2022-12-08T09:30:29.935Z,0.50
2022-12-08T09:32:57.200Z,0.57
2022-12-08T09:35:24.266Z,0.40
2022-12-08T09:37:51.383Z,0.40
2022-12-08T09:40:19.965Z,0.43
2022-12-08T09:42:59.756Z,0.30
2022-12-08T09:45:29.703Z,0.45
2022-12-08T09:48:11.040Z,0.40
2022-12-08T09:50:47.687Z,0.38
2022-12-08T09:53:15.029Z,0.32
2022-12-08T09:56:08.253Z,0.30
2022-12-08T09:58:52.755Z,0.38
2022-12-08T10:01:20.612Z,0.50
2022-12-08T10:03:48.554Z,0.43
2022-12-08T10:06:21.829Z,0.50
2022-12-08T10:08:49.140Z,0.30
2022-12-08T10:11:19.946Z,0.40
2022-12-08T10:13:52.572Z,0.40
2022-12-08T10:16:29.309Z,0.22
2022-12-08T10:19:00.934Z,0.55
2022-12-08T10:21:29.577Z,0.30
2022-12-08T10:23:59.553Z,0.43
2022-12-08T10:26:26.673Z,0.50
2022-12-08T10:28:53.849Z,0.40
2022-12-08T10:31:23.338Z,0.38
2022-12-08T10:33:55.121Z,0.30
2022-12-08T10:36:31.209Z,0.38
2022-12-08T10:39:09.794Z,0.50
2022-12-08T10:41:39.699Z,0.40
2022-12-08T10:44:09.755Z,0.40
2022-12-08T10:46:38.764Z,0.52
2022-12-08T10:49:08.283Z,0.57
2022-12-08T10:51:35.478Z,0.40
2022-12-08T10:54:09.526Z,0.52
2022-12-08T10:56:38.580Z,0.50
2022-12-08T10:59:13.395Z,0.40
2022-12-08T11:01:41.052Z,0.52
2022-12-08T11:04:21.153Z,0.40
2022-12-08T11:06:54.715Z,0.40
2022-12-08T11:09:21.975Z,0.25
2022-12-08T11:11:55.164Z,0.57
2022-12-08T11:14:30.829Z,0.30
2022-12-08T11:17:24.667Z,0.70
2022-12-08T11:20:10.854Z,0.32
2022-12-08T11:22:39.780Z,0.40
2022-12-08T11:27:39.600Z,0.40
2022-12-08T11:30:21.060Z,0.40
2022-12-08T11:32:51.618Z,0.28
2022-12-08T11:35:22.027Z,0.40
2022-12-08T11:38:07.892Z,0.40
2022-12-08T11:40:44.283Z,0.50
2022-12-08T11:43:32.412Z,0.40
2022-12-08T11:46:01.275Z,0.50
2022-12-08T11:48:32.576Z,0.28
2022-12-08T11:51:05.968Z,0.30
2022-12-08T11:53:36.375Z,0.40
2022-12-08T11:56:10.101Z,0.43
2022-12-08T11:58:40.111Z,0.40
2022-12-08T12:01:15.148Z,0.32
2022-12-08T12:03:45.774Z,0.40
2022-12-08T12:06:30.401Z,0.50
2022-12-08T12:09:21.335Z,0.40
2022-12-08T12:12:18.414Z,0.40
2022-12-08T12:14:45.545Z,0.52
2022-12-08T12:17:31.273Z,0.30
2022-12-08T12:20:01.711Z,0.40
2022-12-08T12:22:39.415Z,0.25
2022-12-08T12:25:22.451Z,0.32
2022-12-08T12:27:51.069Z,0.30
2022-12-08T12:30:35.326Z,0.40
2022-12-08T12:33:06.089Z,0.40
2022-12-08T12:35:42.188Z,0.38
2022-12-08T12:38:47.016Z,0.40
2022-12-08T12:41:15.112Z,0.40
2022-12-08T12:44:02.745Z,0.30
2022-12-08T12:46:31.401Z,0.30
2022-12-08T12:49:18.971Z,0.40
2022-12-08T12:51:59.337Z,0.40
2022-12-08T12:54:27.316Z,0.20
2022-12-08T12:57:09.680Z,0.40
2022-12-08T12:59:48.989Z,0.40
2022-12-08T13:02:23.564Z,0.30
2022-12-08T13:05:04.657Z,0.40
2022-12-08T13:07:33.272Z,0.30
2022-12-08T13:10:09.287Z,0.30
2022-12-08T13:12:36.414Z,0.32
2022-12-08T13:15:06.054Z,0.25
2022-12-08T13:17:34.406Z,0.40
2022-12-08T13:20:03.651Z,0.32
2022-12-08T13:22:50.070Z,0.35
2022-12-08T13:25:37.096Z,0.45
2022-12-08T13:28:14.062Z,0.50
2022-12-08T13:30:51.200Z,0.40
2022-12-08T13:33:26.503Z,0.40
2022-12-08T13:36:16.673Z,0.60
2022-12-08T13:38:44.723Z,0.30
2022-12-08T13:41:18.177Z,0.30
2022-12-08T13:58:26.888Z,0.43
2022-12-08T14:00:59.280Z,0.30
2022-12-08T14:03:26.665Z,0.30
2022-12-08T14:06:12.380Z,0.43
2022-12-08T14:11:40.412Z,0.40
2022-12-08T14:14:54.040Z,0.40
2022-12-08T14:17:19.318Z,0.30
2022-12-08T14:19:56.740Z,0.30
2022-12-08T14:22:33.072Z,0.40
2022-12-08T14:25:00.323Z,0.30
2022-12-08T14:27:30.039Z,0.47
2022-12-08T14:29:58.603Z,0.40
2022-12-08T14:32:48.735Z,0.30
2022-12-08T14:35:29.188Z,0.30
2022-12-08T14:37:57.395Z,0.40
2022-12-08T14:40:30.899Z,0.30
2022-12-08T14:43:10.603Z,0.40
2022-12-08T14:45:46.380Z,0.40
2022-12-08T14:48:22.312Z,0.47
2022-12-08T14:51:01.947Z,0.40
2022-12-08T14:53:47.660Z,0.25
2022-12-08T14:56:18.767Z,0.30
2022-12-08T14:58:46.372Z,0.40
2022-12-08T15:01:15.066Z,0.40
2022-12-08T15:03:51.164Z,0.30
2022-12-08T15:06:23.460Z,0.50
2022-12-08T15:09:00.950Z,0.45
2022-12-08T15:11:32.074Z,0.35
2022-12-08T15:14:10.064Z,0.28
2022-12-08T15:16:37.189Z,0.30
2022-12-08T15:19:17.026Z,0.35
2022-12-08T15:21:47.354Z,0.43
2022-12-08T15:24:16.012Z,0.45
2022-12-08T15:26:55.848Z,0.40
2022-12-08T15:29:28.030Z,0.40
2022-12-08T15:31:58.715Z,0.40
2022-12-08T15:34:26.096Z,0.40
2022-12-08T15:36:57.172Z,0.30
2022-12-08T15:39:29.408Z,0.20
2022-12-08T15:41:56.523Z,0.32
2022-12-08T15:44:23.626Z,0.40
2022-12-08T15:46:51.135Z,0.20
2022-12-08T15:49:19.476Z,0.32
2022-12-08T15:51:49.408Z,0.50
2022-12-08T15:54:16.639Z,0.28
2022-12-08T15:57:17.554Z,0.30
2022-12-08T15:59:35.478Z,0.30
2022-12-08T16:02:02.628Z,0.43
2022-12-08T16:07:27.270Z,0.30
2022-12-08T16:09:55.309Z,0.40
2022-12-08T16:13:54.746Z,0.30
2022-12-08T16:18:23.835Z,0.35
2022-12-08T16:29:03.843Z,0.43
2022-12-08T16:31:33.990Z,0.30
2022-12-08T16:34:04.406Z,0.57
2022-12-08T16:36:32.063Z,0.60
2022-12-08T16:38:59.293Z,0.90
2022-12-08T16:41:45.431Z,0.70
2022-12-08T16:44:12.502Z,0.63
2022-12-08T16:46:39.768Z,0.80
2022-12-08T16:49:08.489Z,0.80
2022-12-08T16:51:35.697Z,1.20
2022-12-08T16:54:02.831Z,0.88
2022-12-08T16:56:33.080Z,0.70
2022-12-08T16:59:03.578Z,0.95
2022-12-08T17:01:30.959Z,0.90
2022-12-08T17:06:45.217Z,0.90
2022-12-08T17:09:12.443Z,0.80
2022-12-08T17:11:43.346Z,0.90
2022-12-08T17:14:11.585Z,0.80
2022-12-08T17:16:38.900Z,0.75
2022-12-08T17:19:06.122Z,0.95
2022-12-08T17:21:33.242Z,0.80
2022-12-08T17:24:00.330Z,0.88
2022-12-08T17:26:27.620Z,1.00
2022-12-08T17:29:02.086Z,0.90
2022-12-08T17:31:31.075Z,0.80
2022-12-08T17:33:59.662Z,0.77
2022-12-08T17:36:26.939Z,0.82
2022-12-08T17:38:54.522Z,0.70
2022-12-08T17:41:21.605Z,0.70
2022-12-08T17:43:48.811Z,0.80
2022-12-08T17:46:19.369Z,0.70
2022-12-08T17:48:46.790Z,0.60
2022-12-08T17:51:13.933Z,0.68
2022-12-08T17:53:41.211Z,0.80
2022-12-08T17:56:14.377Z,0.85
2022-12-08T17:58:41.666Z,0.85
2022-12-08T18:01:12.151Z,0.68
2022-12-08T18:03:39.578Z,0.80
2022-12-08T18:06:07.651Z,0.80
2022-12-08T18:08:35.103Z,0.80
2022-12-08T18:11:02.580Z,0.75
2022-12-08T18:13:29.738Z,0.75
2022-12-08T18:15:56.883Z,0.80
2022-12-08T18:18:24.034Z,0.90
2022-12-08T18:20:51.194Z,0.75
2022-12-08T18:23:18.843Z,0.70
2022-12-08T18:25:46.997Z,0.60
2022-12-08T18:28:14.144Z,0.90
2022-12-08T18:30:41.368Z,0.70
2022-12-08T18:33:08.898Z,0.68
2022-12-08T18:35:36.114Z,1.20
2022-12-08T18:38:03.290Z,0.70
2022-12-08T18:40:30.410Z,0.95
2022-12-08T18:42:57.657Z,0.70
2022-12-08T18:45:24.786Z,0.45
2022-12-08T18:47:52.049Z,0.90
2022-12-08T18:50:19.412Z,0.60
2022-12-08T18:52:47.222Z,0.95
2022-12-08T18:55:14.623Z,0.68
2022-12-08T18:57:45.323Z,0.70
2022-12-08T19:00:14.362Z,0.70
2022-12-08T19:02:41.925Z,0.70
2022-12-08T19:05:09.723Z,0.70
2022-12-08T19:07:36.920Z,0.73
2022-12-08T19:10:11.583Z,0.70
2022-12-08T19:12:39.033Z,0.90
2022-12-08T19:15:06.793Z,1.00
2022-12-08T19:17:34.163Z,1.10
2022-12-08T19:20:01.575Z,1.30
2022-12-08T19:22:28.666Z,1.40
2022-12-08T19:24:55.924Z,1.13
2022-12-08T19:27:23.418Z,0.98
2022-12-08T19:29:50.581Z,0.98
2022-12-08T19:32:17.681Z,1.20
2022-12-08T19:34:44.877Z,1.27
2022-12-08T19:37:12.866Z,1.10
2022-12-08T19:39:59.094Z,1.27
2022-12-08T19:42:45.830Z,1.00
2022-12-08T19:45:15.152Z,1.50
2022-12-08T19:47:42.957Z,1.23
2022-12-08T19:50:30.693Z,1.10
2022-12-08T19:52:57.906Z,0.93
2022-12-08T19:55:25.453Z,1.20
2022-12-08T19:57:53.029Z,1.02
2022-12-08T20:00:20.997Z,1.10
2022-12-08T20:02:48.453Z,0.93
2022-12-08T20:05:15.688Z,1.27
2022-12-08T20:07:43.493Z,1.23
2022-12-08T20:10:15.125Z,1.10
2022-12-08T20:12:42.475Z,1.10
2022-12-08T20:15:10.285Z,1.48
2022-12-08T20:17:37.989Z,1.23
2022-12-08T20:20:07.659Z,1.13
2022-12-08T20:22:35.136Z,1.17
2022-12-08T20:25:03.226Z,1.00
2022-12-08T20:27:30.446Z,1.30
2022-12-08T20:29:57.667Z,1.30
2022-12-08T20:32:24.784Z,1.10
2022-12-08T20:34:52.007Z,1.30
2022-12-08T20:37:19.691Z,1.45
2022-12-08T20:39:46.822Z,0.95
2022-12-08T20:42:14.166Z,1.40
2022-12-08T20:44:44.371Z,1.17
2022-12-08T20:47:12.300Z,1.27
2022-12-08T20:49:39.647Z,1.40
2022-12-08T20:52:06.811Z,1.25
2022-12-08T20:54:34.361Z,1.35
2022-12-08T20:57:01.779Z,1.17
2022-12-08T20:59:29.211Z,0.93
2022-12-08T21:01:56.428Z,1.17
2022-12-08T21:04:24.320Z,1.20
2022-12-08T21:06:51.866Z,0.95
2022-12-08T21:09:19.654Z,1.08
2022-12-08T21:11:46.902Z,1.25
2022-12-08T21:14:14.061Z,1.00
2022-12-08T21:16:41.423Z,1.08
2022-12-08T21:19:08.702Z,1.08
2022-12-08T21:21:36.165Z,1.10
2022-12-08T21:24:03.872Z,1.20
2022-12-08T21:26:31.001Z,1.45
2022-12-08T21:28:58.915Z,1.00
2022-12-08T21:31:28.113Z,0.93
2022-12-08T21:33:55.738Z,1.38
2022-12-08T21:36:23.312Z,1.30
2022-12-08T21:38:50.974Z,0.82
2022-12-08T21:41:38.373Z,1.10
2022-12-08T21:46:33.132Z,1.00
2022-12-08T21:49:00.597Z,1.25
2022-12-08T21:51:28.057Z,1.30
2022-12-08T21:53:55.692Z,0.90
2022-12-08T21:56:23.058Z,0.93
2022-12-08T21:58:50.430Z,0.98
2022-12-08T22:01:17.725Z,0.90
2022-12-08T22:03:45.076Z,0.70
2022-12-08T22:06:13.865Z,1.30
2022-12-08T22:08:42.218Z,0.90
2022-12-08T22:11:09.436Z,1.13
2022-12-08T22:13:37.375Z,1.00
2022-12-08T22:16:06.152Z,0.90
2022-12-08T22:18:34.345Z,1.02
2022-12-08T22:21:01.876Z,1.00
2022-12-08T22:23:32.038Z,1.20
2022-12-08T22:26:00.481Z,0.82
2022-12-08T22:28:28.832Z,1.30
2022-12-08T22:30:56.101Z,0.80
2022-12-08T22:33:23.285Z,1.05
2022-12-08T22:36:13.111Z,1.00
2022-12-08T22:38:40.655Z,0.88
2022-12-08T22:41:07.898Z,0.85
2022-12-08T22:43:35.891Z,1.20
2022-12-08T22:46:08.672Z,0.88
2022-12-08T22:48:41.304Z,1.25
2022-12-08T22:51:08.678Z,0.80
2022-12-08T22:53:35.780Z,1.05
2022-12-08T22:56:10.541Z,0.98
2022-12-08T22:58:37.970Z,1.00
2022-12-08T23:01:05.758Z,1.10
2022-12-08T23:03:33.815Z,0.90
2022-12-08T23:06:01.719Z,1.17
2022-12-08T23:08:29.295Z,0.98
2022-12-08T23:13:44.614Z,1.02
2022-12-08T23:16:12.408Z,1.10
2022-12-08T23:18:43.648Z,1.00
2022-12-08T23:21:14.912Z,1.20
2022-12-08T23:23:42.173Z,1.25
2022-12-08T23:26:18.463Z,1.45
2022-12-08T23:28:45.756Z,1.67
2022-12-08T23:31:13.221Z,1.52
2022-12-08T23:33:40.579Z,1.50
2022-12-08T23:36:07.858Z,1.50
2022-12-08T23:38:34.999Z,1.63
2022-12-08T23:41:03.458Z,1.40
2022-12-08T23:43:30.759Z,1.70
2022-12-08T23:45:58.095Z,1.52
2022-12-08T23:48:25.575Z,1.30
2022-12-08T23:50:52.726Z,1.52
2022-12-08T23:53:20.049Z,1.42
2022-12-08T23:55:47.609Z,1.38
2022-12-08T23:58:14.822Z,1.23
